createdAt,value
2022-10-31T00:03:12.492Z,36.50
2022-10-31T00:13:28.025Z,36.30
2022-10-31T00:23:47.390Z,36.20
2022-10-31T00:44:51.630Z,32.10
2022-10-31T01:27:09.436Z,30.00
2022-10-31T01:38:09.882Z,28.60
2022-10-31T01:59:27.544Z,29.60
2022-10-31T02:09:52.405Z,30.40
2022-10-31T02:20:48.401Z,28.30
2022-10-31T02:31:38.329Z,32.20
2022-10-31T02:42:03.601Z,32.90
2022-10-31T02:52:37.827Z,29.80
2022-10-31T03:15:11.096Z,30.20
2022-10-31T03:26:06.125Z,30.90
2022-10-31T03:36:52.759Z,31.90
2022-10-31T03:47:46.612Z,30.20
2022-10-31T03:58:27.845Z,29.60
2022-10-31T04:09:24.831Z,30.30
2022-10-31T04:19:44.126Z,30.70
2022-10-31T04:30:18.789Z,29.50
2022-10-31T04:40:46.545Z,29.10
2022-10-31T04:51:12.161Z,28.50
2022-10-31T05:01:32.206Z,27.80
2022-10-31T05:12:35.215Z,27.50
2022-10-31T05:44:30.620Z,26.40
2022-10-31T05:55:13.965Z,24.30
2022-10-31T06:16:35.315Z,22.00
2022-10-31T06:27:24.270Z,19.60
2022-10-31T06:37:50.451Z,19.30
2022-10-31T06:48:37.545Z,19.10
2022-10-31T06:59:01.378Z,16.90
2022-10-31T07:09:38.590Z,17.70
2022-10-31T07:20:05.278Z,20.20
2022-10-31T07:41:11.840Z,19.60
2022-10-31T08:03:20.325Z,18.80
2022-10-31T08:25:47.002Z,16.20
2022-10-31T08:37:02.126Z,17.90
2022-10-31T08:48:07.195Z,19.10
2022-10-31T09:11:11.073Z,23.10
2022-10-31T09:33:07.252Z,23.50
2022-10-31T09:44:22.407Z,28.20
2022-10-31T09:55:47.291Z,24.60
2022-10-31T10:06:39.304Z,26.10
2022-10-31T10:17:53.801Z,24.00
2022-10-31T11:03:27.833Z,32.00
2022-10-31T11:38:15.842Z,27.00
2022-10-31T11:48:27.231Z,28.20
2022-10-31T11:58:33.458Z,37.30
2022-10-31T12:08:39.170Z,34.40
2022-10-31T12:19:07.456Z,32.10
2022-10-31T12:29:22.525Z,40.30
2022-10-31T12:39:43.544Z,38.30
2022-10-31T12:50:19.719Z,34.40
2022-10-31T13:49:18.858Z,34.10
2022-10-31T15:33:48.494Z,31.40
2022-10-31T15:44:26.272Z,40.50
2022-10-31T15:54:29.083Z,34.20
2022-10-31T16:04:31.140Z,34.80
2022-10-31T16:14:40.875Z,34.20
2022-10-31T16:24:58.413Z,33.40
2022-10-31T16:35:12.513Z,51.20
2022-10-31T16:45:18.795Z,37.70
2022-10-31T16:55:21.827Z,34.60
2022-10-31T17:05:30.291Z,33.40
2022-10-31T17:16:30.215Z,25.20
2022-10-31T17:26:49.848Z,33.00
2022-10-31T17:36:57.336Z,29.30
2022-10-31T17:47:09.756Z,24.90
2022-10-31T17:57:20.720Z,23.60
2022-10-31T18:07:45.074Z,27.50
2022-10-31T18:17:49.510Z,27.80
2022-10-31T18:28:06.534Z,36.40
2022-10-31T18:38:19.814Z,49.00
2022-10-31T18:48:31.007Z,25.90
2022-10-31T19:23:32.304Z,26.30
2022-10-31T19:44:48.906Z,23.30
2022-10-31T20:29:22.985Z,25.90
2022-10-31T20:51:47.373Z,23.30
2022-10-31T21:49:51.285Z,23.20
2022-10-31T22:35:15.481Z,20.60
2022-10-31T22:57:42.036Z,20.40
2022-10-31T23:08:31.830Z,19.60
2022-10-31T23:19:52.222Z,18.40
